createdAt,value
2019-03-30T00:00:44.386Z,1022.02
2019-03-30T00:01:44.407Z,1022.04
2019-03-30T00:02:44.420Z,1022
2019-03-30T00:03:44.441Z,1021.98
2019-03-30T00:04:44.452Z,1021.96
2019-03-30T00:05:44.476Z,1021.97
2019-03-30T00:06:44.491Z,1021.94
2019-03-30T00:08:44.521Z,1021.93
2019-03-30T00:09:44.533Z,1021.93
2019-03-30T00:10:44.554Z,1021.92
2019-03-30T00:11:44.590Z,1021.92
2019-03-30T00:12:44.586Z,1021.9
2019-03-30T00:13:44.598Z,1021.92
2019-03-30T00:14:44.620Z,1021.92
2019-03-30T00:15:44.630Z,1021.9
2019-03-30T00:16:44.652Z,1021.9
2019-03-30T00:17:44.669Z,1021.86
2019-03-30T00:18:44.684Z,1021.85
2019-03-30T00:19:44.695Z,1021.88
2019-03-30T00:20:44.712Z,1021.86
2019-03-30T00:21:44.732Z,1021.82
2019-03-30T00:22:44.744Z,1021.86
2019-03-30T00:24:44.782Z,1021.86
2019-03-30T00:25:44.795Z,1021.84
2019-03-30T00:26:44.827Z,1021.83
2019-03-30T00:27:44.829Z,1021.82
2019-03-30T00:28:44.841Z,1021.79
2019-03-30T00:29:44.862Z,1021.8
2019-03-30T00:30:44.874Z,1021.75
2019-03-30T00:31:44.889Z,1021.77
2019-03-30T00:32:44.911Z,1021.73
2019-03-30T00:33:44.926Z,1021.73
2019-03-30T00:34:44.942Z,1021.71
2019-03-30T00:35:44.954Z,1021.73
2019-03-30T00:36:44.975Z,1021.71
2019-03-30T00:37:44.987Z,1021.71
2019-03-30T00:39:45.025Z,1021.69
2019-03-30T00:40:45.035Z,1021.66
2019-03-30T00:41:45.052Z,1021.7
2019-03-30T00:42:45.071Z,1021.64
2019-03-30T00:43:45.092Z,1021.63
2019-03-30T00:44:45.104Z,1021.64
2019-03-30T00:45:45.115Z,1021.65
2019-03-30T00:46:45.137Z,1021.63
2019-03-30T00:47:45.147Z,1021.63
2019-03-30T00:48:45.163Z,1021.65
2019-03-30T00:49:49.222Z,1021.65
2019-03-30T00:50:45.196Z,1021.67
2019-03-30T00:51:45.297Z,1021.69
2019-03-30T00:52:45.231Z,1021.69
2019-03-30T00:53:45.243Z,1021.66
2019-03-30T00:54:45.259Z,1021.66
2019-03-30T00:55:45.275Z,1021.65
2019-03-30T00:56:45.305Z,1021.64
2019-03-30T00:57:45.307Z,1021.61
2019-03-30T00:58:45.327Z,1021.64
2019-03-30T00:59:45.340Z,1021.64
2019-03-30T01:00:45.362Z,1021.6
2019-03-30T01:01:45.371Z,1021.57
2019-03-30T01:02:45.385Z,1021.54
2019-03-30T01:03:45.406Z,1021.56
2019-03-30T01:04:45.417Z,1021.54
2019-03-30T01:05:45.439Z,1021.52
2019-03-30T01:06:45.453Z,1021.5
2019-03-30T01:07:45.466Z,1021.5
2019-03-30T01:08:45.487Z,1021.52
2019-03-30T01:09:45.497Z,1021.47
2019-03-30T01:11:45.529Z,1021.47
2019-03-30T01:12:45.545Z,1021.46
2019-03-30T01:13:45.565Z,1021.46
2019-03-30T01:14:45.575Z,1021.45
2019-03-30T01:15:45.596Z,1021.46
2019-03-30T01:16:45.607Z,1021.45
2019-03-30T01:17:45.627Z,1021.44
2019-03-30T01:18:45.638Z,1021.43
2019-03-30T01:19:45.658Z,1021.47
2019-03-30T01:20:45.676Z,1021.43
2019-03-30T01:21:45.691Z,1021.45
2019-03-30T01:22:45.707Z,1021.43
2019-03-30T01:23:45.718Z,1021.43
2019-03-30T01:24:45.738Z,1021.44
2019-03-30T01:25:45.749Z,1021.47
2019-03-30T01:27:45.785Z,1021.45
2019-03-30T01:28:45.795Z,1021.42
2019-03-30T01:29:45.817Z,1021.44
2019-03-30T01:30:45.827Z,1021.43
2019-03-30T01:31:45.847Z,1021.43
2019-03-30T01:32:45.858Z,1021.4
2019-03-30T01:33:45.885Z,1021.39
2019-03-30T01:34:45.890Z,1021.43
2019-03-30T01:35:45.905Z,1021.42
2019-03-30T01:36:45.921Z,1021.41
2019-03-30T01:37:45.940Z,1021.42
2019-03-30T01:38:45.961Z,1021.41
2019-03-30T01:39:45.971Z,1021.42
2019-03-30T01:40:45.986Z,1021.43
2019-03-30T01:41:46.004Z,1021.42
2019-03-30T01:43:46.029Z,1021.42
2019-03-30T01:44:46.050Z,1021.39
2019-03-30T01:45:46.061Z,1021.38
2019-03-30T01:46:46.081Z,1021.4
2019-03-30T01:47:46.091Z,1021.37
2019-03-30T01:48:46.112Z,1021.39
2019-03-30T01:49:46.129Z,1021.39
2019-03-30T01:50:46.142Z,1021.4
2019-03-30T01:51:46.154Z,1021.4
2019-03-30T01:52:46.174Z,1021.41
2019-03-30T01:53:46.190Z,1021.36
2019-03-30T01:54:46.205Z,1021.34
2019-03-30T01:55:46.217Z,1021.38
2019-03-30T01:56:46.232Z,1021.37
2019-03-30T01:57:46.251Z,1021.41
2019-03-30T01:59:46.278Z,1021.38
2019-03-30T02:00:46.298Z,1021.41
2019-03-30T02:01:46.309Z,1021.38
2019-03-30T02:02:46.329Z,1021.4
2019-03-30T02:03:46.340Z,1021.39
2019-03-30T02:04:46.359Z,1021.39
2019-03-30T02:05:46.371Z,1021.38
2019-03-30T02:06:46.386Z,1021.38
2019-03-30T02:07:46.409Z,1021.39
2019-03-30T02:08:46.417Z,1021.38
2019-03-30T02:09:46.437Z,1021.34
2019-03-30T02:10:46.448Z,1021.35
2019-03-30T02:11:46.468Z,1021.32
2019-03-30T02:12:46.480Z,1021.32
2019-03-30T02:14:46.512Z,1021.31
2019-03-30T02:15:46.533Z,1021.29
2019-03-30T02:16:46.546Z,1021.29
2019-03-30T02:17:46.557Z,1021.29
2019-03-30T02:18:46.602Z,1021.26
2019-03-30T02:19:46.587Z,1021.23
2019-03-30T02:20:46.609Z,1021.25
2019-03-30T02:21:46.622Z,1021.22
2019-03-30T02:22:46.637Z,1021.25
2019-03-30T02:23:46.649Z,1021.24
2019-03-30T02:24:46.668Z,1021.24
2019-03-30T02:25:46.680Z,1021.24
2019-03-30T02:26:46.699Z,1021.34
2019-03-30T02:27:46.710Z,1021.29
2019-03-30T02:28:46.725Z,1021.23
2019-03-30T02:29:46.740Z,1021.22
2019-03-30T02:30:46.776Z,1021.25
2019-03-30T02:31:46.772Z,1021.14
2019-03-30T02:32:46.799Z,1021.19
2019-03-30T02:33:46.800Z,1021.09
2019-03-30T02:34:46.820Z,1021.12
2019-03-30T02:35:46.841Z,1021.08
2019-03-30T02:36:46.849Z,1021.11
2019-03-30T02:37:46.870Z,1021.1
2019-03-30T02:38:46.882Z,1021.1
2019-03-30T02:39:46.899Z,1021.11
2019-03-30T02:40:46.908Z,1021.08
2019-03-30T02:41:46.923Z,1021.14
2019-03-30T02:42:46.938Z,1021.11
2019-03-30T02:43:46.958Z,1021.09
2019-03-30T02:44:46.968Z,1021.12
2019-03-30T02:46:47.004Z,1021.12
2019-03-30T02:47:47.021Z,1021.12
2019-03-30T02:48:47.033Z,1021.09
2019-03-30T02:49:47.045Z,1021.09
2019-03-30T02:50:50.458Z,1021.11
2019-03-30T02:51:47.076Z,1021.05
2019-03-30T02:52:47.092Z,1021.04
2019-03-30T02:53:47.110Z,1021.05
2019-03-30T02:54:47.121Z,1021.05
2019-03-30T02:55:47.141Z,1021.02
2019-03-30T02:56:47.151Z,1021.05
2019-03-30T02:57:47.172Z,1020.97
2019-03-30T02:58:47.187Z,1020.97
2019-03-30T02:59:47.197Z,1021
2019-03-30T03:00:47.210Z,1021.02
2019-03-30T03:02:47.367Z,1020.99
2019-03-30T03:03:47.256Z,1020.99
2019-03-30T03:04:47.276Z,1020.99
2019-03-30T03:05:47.287Z,1020.99
2019-03-30T03:06:47.306Z,1020.97
2019-03-30T03:07:47.315Z,1020.96
2019-03-30T03:08:47.336Z,1020.92
2019-03-30T03:09:47.350Z,1020.89
2019-03-30T03:10:47.368Z,1020.94
2019-03-30T03:11:47.474Z,1020.92
2019-03-30T03:12:47.391Z,1020.92
2019-03-30T03:13:47.411Z,1020.88
2019-03-30T03:14:47.421Z,1020.89
2019-03-30T03:15:47.545Z,1020.89
2019-03-30T03:16:47.462Z,1020.86
2019-03-30T03:18:47.485Z,1020.83
2019-03-30T03:19:47.497Z,1020.83
2019-03-30T03:20:47.512Z,1020.84
2019-03-30T03:21:47.532Z,1020.84
2019-03-30T03:22:47.544Z,1020.84
2019-03-30T03:23:47.558Z,1020.78
2019-03-30T03:24:47.577Z,1020.86
2019-03-30T03:25:47.590Z,1020.8
2019-03-30T03:26:47.618Z,1020.79
2019-03-30T03:27:47.618Z,1020.75
2019-03-30T03:28:47.646Z,1020.76
2019-03-30T03:29:47.660Z,1020.77
2019-03-30T03:30:47.662Z,1020.75
2019-03-30T03:31:47.685Z,1020.75
2019-03-30T03:32:47.696Z,1020.78
2019-03-30T03:34:47.723Z,1020.69
2019-03-30T03:35:47.742Z,1020.7
2019-03-30T03:36:47.763Z,1020.7
2019-03-30T03:37:47.771Z,1020.68
2019-03-30T03:38:47.786Z,1020.7
2019-03-30T03:39:47.801Z,1020.69
2019-03-30T03:40:47.818Z,1020.66
2019-03-30T03:41:47.833Z,1020.64
2019-03-30T03:42:47.847Z,1020.64
2019-03-30T03:43:47.862Z,1020.65
2019-03-30T03:44:47.876Z,1020.63
2019-03-30T03:45:47.916Z,1020.58
2019-03-30T03:46:47.906Z,1020.58
2019-03-30T03:47:47.919Z,1020.58
2019-03-30T03:49:47.947Z,1020.56
2019-03-30T03:50:47.965Z,1020.55
2019-03-30T03:51:47.976Z,1020.59
2019-03-30T03:52:47.997Z,1020.61
2019-03-30T03:53:48.010Z,1020.59
2019-03-30T03:54:48.025Z,1020.64
2019-03-30T03:55:48.042Z,1020.64
2019-03-30T03:56:48.061Z,1020.62
2019-03-30T03:57:48.080Z,1020.62
2019-03-30T03:58:48.083Z,1020.63
2019-03-30T03:59:48.093Z,1020.67
2019-03-30T04:00:48.113Z,1020.61
2019-03-30T04:01:48.123Z,1020.69
2019-03-30T04:02:48.143Z,1020.61
2019-03-30T04:03:48.153Z,1020.6
2019-03-30T04:04:48.172Z,1020.6
2019-03-30T04:05:48.183Z,1020.63
2019-03-30T04:06:48.221Z,1020.6
2019-03-30T04:07:48.218Z,1020.57
2019-03-30T04:08:48.232Z,1020.59
2019-03-30T04:09:48.245Z,1020.56
2019-03-30T04:10:48.257Z,1020.53
2019-03-30T04:11:48.276Z,1020.54
2019-03-30T04:12:48.286Z,1020.52
2019-03-30T04:13:48.329Z,1020.53
2019-03-30T04:14:48.320Z,1020.51
2019-03-30T04:15:48.330Z,1020.51
2019-03-30T04:16:48.348Z,1020.5
2019-03-30T04:17:48.364Z,1020.48
2019-03-30T04:18:48.711Z,1020.47
2019-03-30T04:19:48.392Z,1020.42
2019-03-30T04:21:48.418Z,1020.4
2019-03-30T04:22:48.439Z,1020.4
2019-03-30T04:23:48.448Z,1020.37
2019-03-30T04:24:48.468Z,1020.41
2019-03-30T04:25:48.477Z,1020.39
2019-03-30T04:26:48.495Z,1020.44
2019-03-30T04:27:48.510Z,1020.44
2019-03-30T04:28:48.526Z,1020.46
2019-03-30T04:29:48.578Z,1020.47
2019-03-30T04:30:48.551Z,1020.42
2019-03-30T04:31:48.569Z,1020.43
2019-03-30T04:32:48.579Z,1020.43
2019-03-30T04:33:48.599Z,1020.4
2019-03-30T04:34:48.608Z,1020.41
2019-03-30T04:35:48.647Z,1020.41
2019-03-30T04:37:48.654Z,1020.42
2019-03-30T04:38:48.678Z,1020.39
2019-03-30T04:39:48.686Z,1020.36
2019-03-30T04:40:48.701Z,1020.36
2019-03-30T04:41:48.711Z,1020.37
2019-03-30T04:42:48.730Z,1020.32
2019-03-30T04:43:48.740Z,1020.33
2019-03-30T04:44:48.755Z,1020.29
2019-03-30T04:45:48.769Z,1020.27
2019-03-30T04:46:48.789Z,1020.31
2019-03-30T04:47:48.800Z,1020.33
2019-03-30T04:48:48.819Z,1020.33
2019-03-30T04:49:48.830Z,1020.34
2019-03-30T04:50:48.846Z,1020.37
2019-03-30T04:51:57.180Z,1020.33
2019-03-30T04:53:48.886Z,1020.33
2019-03-30T04:54:48.907Z,1020.33
2019-03-30T04:55:48.920Z,1020.32
2019-03-30T04:56:48.930Z,1020.32
2019-03-30T04:57:49.531Z,1020.28
2019-03-30T04:58:48.960Z,1020.3
2019-03-30T04:59:48.979Z,1020.29
2019-03-30T05:00:48.991Z,1020.31
2019-03-30T05:01:49.007Z,1020.31
2019-03-30T05:02:49.027Z,1020.35
2019-03-30T05:03:49.032Z,1020.36
2019-03-30T05:04:49.052Z,1020.32
2019-03-30T05:05:49.063Z,1020.31
2019-03-30T05:06:49.081Z,1020.3
2019-03-30T05:07:49.091Z,1020.29
2019-03-30T05:09:49.125Z,1020.27
2019-03-30T05:10:49.141Z,1020.26
2019-03-30T05:11:49.154Z,1020.28
2019-03-30T05:12:49.171Z,1020.23
2019-03-30T05:13:49.179Z,1020.22
2019-03-30T05:14:49.199Z,1020.25
2019-03-30T05:15:49.209Z,1020.24
2019-03-30T05:16:49.225Z,1020.24
2019-03-30T05:17:49.244Z,1020.24
2019-03-30T05:18:49.258Z,1020.26
2019-03-30T05:19:49.276Z,1020.26
2019-03-30T05:20:49.283Z,1020.26
2019-03-30T05:21:49.303Z,1020.29
2019-03-30T05:22:51.269Z,1020.28
2019-03-30T05:24:49.419Z,1020.28
2019-03-30T05:25:49.359Z,1020.32
2019-03-30T05:26:49.381Z,1020.29
2019-03-30T05:27:49.390Z,1020.32
2019-03-30T05:28:49.487Z,1020.29
2019-03-30T05:29:49.421Z,1020.33
2019-03-30T05:30:49.441Z,1020.28
2019-03-30T05:31:49.459Z,1020.34
2019-03-30T05:32:49.467Z,1020.28
2019-03-30T05:33:49.487Z,1020.3
2019-03-30T05:34:49.499Z,1020.3
2019-03-30T05:35:49.519Z,1020.3
2019-03-30T05:36:49.530Z,1020.27
2019-03-30T05:37:49.552Z,1020.29
2019-03-30T05:38:49.563Z,1020.33
2019-03-30T05:39:49.583Z,1020.28
2019-03-30T05:40:49.594Z,1020.31
2019-03-30T05:41:49.616Z,1020.32
2019-03-30T05:42:49.627Z,1020.24
2019-03-30T05:43:49.647Z,1020.32
2019-03-30T05:44:49.663Z,1020.3
2019-03-30T05:45:49.680Z,1020.24
2019-03-30T05:46:49.692Z,1020.26
2019-03-30T05:47:49.707Z,1020.32
2019-03-30T05:48:49.730Z,1020.34
2019-03-30T05:49:49.745Z,1020.34
2019-03-30T05:50:49.758Z,1020.34
2019-03-30T05:51:49.778Z,1020.33
2019-03-30T05:52:49.790Z,1020.38
2019-03-30T05:53:49.813Z,1020.34
2019-03-30T05:54:49.827Z,1020.31
2019-03-30T05:56:49.865Z,1020.36
2019-03-30T05:57:49.874Z,1020.33
2019-03-30T05:58:49.895Z,1020.31
2019-03-30T05:59:49.912Z,1020.29
2019-03-30T06:00:49.931Z,1020.28
2019-03-30T06:01:49.950Z,1020.23
2019-03-30T06:02:49.967Z,1020.34
2019-03-30T06:03:49.979Z,1020.38
2019-03-30T06:04:50.002Z,1020.33
2019-03-30T06:05:50.014Z,1020.36
2019-03-30T06:06:50.037Z,1020.36
2019-03-30T06:07:50.051Z,1020.4
2019-03-30T06:08:50.074Z,1020.41
2019-03-30T06:09:50.087Z,1020.42
2019-03-30T06:10:50.110Z,1020.44
2019-03-30T06:12:50.146Z,1020.44
2019-03-30T06:13:50.172Z,1020.41
2019-03-30T06:14:50.187Z,1020.44
2019-03-30T06:15:50.212Z,1020.46
2019-03-30T06:16:50.229Z,1020.52
2019-03-30T06:17:50.256Z,1020.48
2019-03-30T06:18:50.276Z,1020.48
2019-03-30T06:19:50.294Z,1020.51
2019-03-30T06:20:50.320Z,1020.53
2019-03-30T06:21:50.340Z,1020.55
2019-03-30T06:22:50.365Z,1020.58
2019-03-30T06:23:50.385Z,1020.61
2019-03-30T06:24:50.411Z,1020.66
2019-03-30T06:25:50.434Z,1020.7
2019-03-30T06:26:50.459Z,1020.76
2019-03-30T06:28:50.501Z,1020.84
2019-03-30T06:29:50.529Z,1020.87
2019-03-30T06:30:50.552Z,1020.91
2019-03-30T06:31:50.577Z,1020.99
2019-03-30T06:32:50.598Z,1021.02
2019-03-30T06:33:50.623Z,1020.99
2019-03-30T06:34:50.653Z,1021.03
2019-03-30T06:35:50.680Z,1020.97
2019-03-30T06:36:50.697Z,1021.03
2019-03-30T06:37:50.727Z,1021.02
2019-03-30T06:38:50.747Z,1021.12
2019-03-30T06:39:50.777Z,1020.89
2019-03-30T06:40:50.798Z,1021.14
2019-03-30T06:41:50.828Z,1021.25
2019-03-30T06:42:50.853Z,1021.22
2019-03-30T06:44:50.905Z,1020.94
2019-03-30T06:45:50.927Z,1021.12
2019-03-30T06:46:50.952Z,1021.2
2019-03-30T06:47:50.983Z,1021.21
2019-03-30T06:48:51.012Z,1021.19
2019-03-30T06:49:51.041Z,1021.24
2019-03-30T06:50:51.063Z,1021.27
2019-03-30T06:51:51.087Z,1021.2
2019-03-30T06:52:57.257Z,1021.22
2019-03-30T06:53:51.141Z,1021.24
2019-03-30T06:54:51.163Z,1021.16
2019-03-30T06:55:51.194Z,1021.15
2019-03-30T06:56:51.221Z,1021.12
2019-03-30T06:57:51.245Z,1021.12
2019-03-30T06:59:51.305Z,1021
2019-03-30T07:00:51.326Z,1020.82
2019-03-30T07:01:51.358Z,1020.76
2019-03-30T07:02:51.381Z,1020.74
2019-03-30T07:03:51.409Z,1020.7
2019-03-30T07:04:51.435Z,1020.74
2019-03-30T07:05:51.467Z,1020.77
2019-03-30T07:06:51.495Z,1020.79
2019-03-30T07:07:51.517Z,1020.88
2019-03-30T07:08:51.545Z,1020.89
2019-03-30T07:09:51.572Z,1020.96
2019-03-30T07:10:51.605Z,1020.98
2019-03-30T07:11:51.626Z,1020.97
2019-03-30T07:12:51.660Z,1020.94
2019-03-30T07:13:51.682Z,1020.93
2019-03-30T07:14:51.714Z,1020.96
2019-03-30T07:15:51.736Z,1020.99
2019-03-30T07:16:51.767Z,1021
2019-03-30T07:17:51.797Z,1021.02
2019-03-30T07:18:51.820Z,1020.95
2019-03-30T07:19:51.852Z,1020.98
2019-03-30T07:20:51.881Z,1020.94
2019-03-30T07:21:51.987Z,1020.93
2019-03-30T07:22:51.934Z,1020.91
2019-03-30T07:23:51.963Z,1020.9
2019-03-30T07:24:51.997Z,1020.87
2019-03-30T07:25:52.026Z,1020.88
2019-03-30T07:26:52.049Z,1020.87
2019-03-30T07:27:52.085Z,1020.85
2019-03-30T07:28:52.108Z,1020.83
2019-03-30T07:29:52.140Z,1020.86
2019-03-30T07:31:52.195Z,1020.88
2019-03-30T07:32:52.230Z,1020.89
2019-03-30T07:33:52.254Z,1020.84
2019-03-30T07:34:52.289Z,1020.79
2019-03-30T07:35:52.312Z,1020.73
2019-03-30T07:36:52.346Z,1020.72
2019-03-30T07:37:52.373Z,1020.71
2019-03-30T07:38:52.407Z,1020.66
2019-03-30T07:39:52.507Z,1020.7
2019-03-30T07:40:52.475Z,1020.64
2019-03-30T07:41:52.495Z,1020.63
2019-03-30T07:42:52.520Z,1020.65
2019-03-30T07:43:52.551Z,1020.65
2019-03-30T07:44:52.583Z,1020.68
2019-03-30T07:45:52.617Z,1020.63
2019-03-30T07:47:52.670Z,1020.53
2019-03-30T07:48:52.705Z,1020.53
2019-03-30T07:49:52.728Z,1020.57
2019-03-30T07:50:52.759Z,1020.54
2019-03-30T07:51:52.793Z,1020.52
2019-03-30T07:52:52.817Z,1020.51
2019-03-30T07:53:52.849Z,1020.48
2019-03-30T07:54:52.881Z,1020.41
2019-03-30T07:55:52.906Z,1020.38
2019-03-30T07:57:04.109Z,1020.37
2019-03-30T07:57:53.004Z,1020.36
2019-03-30T07:58:52.997Z,1020.3
2019-03-30T07:59:53.027Z,1020.3
2019-03-30T08:00:53.055Z,1020.34
2019-03-30T08:01:53.097Z,1020.27
2019-03-30T08:03:53.147Z,1020.21
2019-03-30T08:04:53.173Z,1020.2
2019-03-30T08:05:54.434Z,1020.21
2019-03-30T08:06:53.236Z,1020.18
2019-03-30T08:07:53.264Z,1020.18
2019-03-30T08:08:53.291Z,1020.14
2019-03-30T08:09:53.326Z,1020.16
2019-03-30T08:10:53.355Z,1020.15
2019-03-30T08:11:53.380Z,1020.14
2019-03-30T08:12:53.415Z,1020.08
2019-03-30T08:13:53.438Z,1020.05
2019-03-30T08:14:53.475Z,1020.05
2019-03-30T08:15:53.497Z,1020.05
2019-03-30T08:16:53.531Z,1020.09
2019-03-30T08:17:53.554Z,1020.05
2019-03-30T08:19:53.616Z,1020.04
2019-03-30T08:20:53.646Z,1020.08
2019-03-30T08:21:53.673Z,1020.03
2019-03-30T08:22:53.700Z,1020.02
2019-03-30T08:23:53.728Z,1020
2019-03-30T08:24:53.764Z,1019.99
2019-03-30T08:25:53.788Z,1019.98
2019-03-30T08:26:53.821Z,1019.98
2019-03-30T08:27:53.852Z,1019.95
2019-03-30T08:28:53.876Z,1019.96
2019-03-30T08:29:53.907Z,1019.93
2019-03-30T08:30:53.931Z,1019.97
2019-03-30T08:31:53.965Z,1019.95
2019-03-30T08:32:53.989Z,1019.95
2019-03-30T08:34:54.052Z,1019.88
2019-03-30T08:35:54.076Z,1019.89
2019-03-30T08:36:54.110Z,1019.91
2019-03-30T08:37:54.134Z,1019.91
2019-03-30T08:38:54.169Z,1019.9
2019-03-30T08:39:54.191Z,1019.86
2019-03-30T08:40:54.225Z,1019.87
2019-03-30T08:41:54.253Z,1019.86
2019-03-30T08:42:54.277Z,1019.87
2019-03-30T08:43:54.311Z,1019.83
2019-03-30T08:44:54.335Z,1019.8
2019-03-30T08:45:54.366Z,1019.79
2019-03-30T08:46:54.397Z,1019.76
2019-03-30T08:47:54.426Z,1019.77
2019-03-30T08:48:54.451Z,1019.76
2019-03-30T08:49:54.483Z,1019.76
2019-03-30T08:50:54.506Z,1019.75
2019-03-30T08:51:54.540Z,1019.78
2019-03-30T08:52:54.570Z,1019.68
2019-03-30T08:53:55.138Z,1019.73
2019-03-30T08:54:54.624Z,1019.71
2019-03-30T08:55:54.651Z,1019.7
2019-03-30T08:56:54.683Z,1019.7
2019-03-30T08:57:54.707Z,1019.65
2019-03-30T08:58:54.740Z,1019.61
2019-03-30T08:59:54.770Z,1019.61
2019-03-30T09:00:54.797Z,1019.63
2019-03-30T09:01:54.820Z,1019.66
2019-03-30T09:02:54.856Z,1019.64
2019-03-30T09:03:54.882Z,1019.63
2019-03-30T09:04:54.912Z,1019.62
2019-03-30T09:06:54.963Z,1019.61
2019-03-30T09:07:54.996Z,1019.56
2019-03-30T09:08:55.019Z,1019.58
2019-03-30T09:09:55.052Z,1019.58
2019-03-30T09:10:55.076Z,1019.51
2019-03-30T09:11:55.109Z,1019.48
2019-03-30T09:12:55.138Z,1019.47
2019-03-30T09:13:55.162Z,1019.42
2019-03-30T09:14:55.189Z,1019.45
2019-03-30T09:15:55.221Z,1019.47
2019-03-30T09:16:55.245Z,1019.46
2019-03-30T09:17:55.278Z,1019.48
2019-03-30T09:18:55.302Z,1019.45
2019-03-30T09:19:55.329Z,1019.41
2019-03-30T09:20:55.358Z,1019.39
2019-03-30T09:22:55.419Z,1019.36
2019-03-30T09:24:08.711Z,1019.36
2019-03-30T09:24:55.474Z,1019.3
2019-03-30T09:25:55.498Z,1019.28
2019-03-30T09:26:55.531Z,1019.3
2019-03-30T09:27:55.555Z,1019.23
2019-03-30T09:28:55.587Z,1019.24
2019-03-30T09:29:55.610Z,1019.18
2019-03-30T09:30:55.640Z,1019.15
2019-03-30T09:31:55.716Z,1019.2
2019-03-30T09:32:55.693Z,1019.21
2019-03-30T09:33:55.721Z,1019.22
2019-03-30T09:34:55.753Z,1019.2
2019-03-30T09:35:55.779Z,1019.16
2019-03-30T09:36:55.896Z,1019.16
2019-03-30T09:38:55.858Z,1019.15
2019-03-30T09:39:55.890Z,1019.13
2019-03-30T09:40:55.915Z,1019.15
2019-03-30T09:41:55.944Z,1019.12
2019-03-30T09:42:55.972Z,1019.12
2019-03-30T09:43:56.000Z,1019.07
2019-03-30T09:44:56.031Z,1019.02
2019-03-30T09:45:56.057Z,1018.98
2019-03-30T09:46:56.079Z,1019.04
2019-03-30T09:47:56.111Z,1019.04
2019-03-30T09:48:56.134Z,1019.05
2019-03-30T09:49:56.166Z,1019
2019-03-30T09:50:56.190Z,1019.03
2019-03-30T09:51:56.222Z,1019
2019-03-30T09:52:56.248Z,1018.98
2019-03-30T09:54:56.300Z,1018.93
2019-03-30T09:55:56.328Z,1018.97
2019-03-30T09:56:56.359Z,1018.89
2019-03-30T09:57:56.382Z,1018.91
2019-03-30T09:58:56.415Z,1018.92
2019-03-30T09:59:56.442Z,1018.86
2019-03-30T10:00:56.469Z,1018.87
2019-03-30T10:01:56.493Z,1018.91
2019-03-30T10:02:56.521Z,1018.9
2019-03-30T10:03:56.551Z,1018.87
2019-03-30T10:04:56.576Z,1018.85
2019-03-30T10:05:56.608Z,1018.87
2019-03-30T10:06:56.632Z,1018.85
2019-03-30T10:07:56.664Z,1018.8
2019-03-30T10:09:56.717Z,1018.78
2019-03-30T10:10:56.739Z,1018.74
2019-03-30T10:11:56.771Z,1018.75
2019-03-30T10:12:56.795Z,1018.74
2019-03-30T10:13:56.821Z,1018.71
2019-03-30T10:14:56.851Z,1018.75
2019-03-30T10:15:56.880Z,1018.71
2019-03-30T10:16:56.905Z,1018.75
2019-03-30T10:17:56.926Z,1018.69
2019-03-30T10:18:56.953Z,1018.73
2019-03-30T10:20:03.922Z,1018.71
2019-03-30T10:20:57.012Z,1018.67
2019-03-30T10:21:57.032Z,1018.68
2019-03-30T10:22:57.069Z,1018.64
2019-03-30T10:23:57.092Z,1018.64
2019-03-30T10:24:58.485Z,1018.63
2019-03-30T10:25:57.142Z,1018.59
2019-03-30T10:26:57.164Z,1018.57
2019-03-30T10:27:57.198Z,1018.54
2019-03-30T10:28:57.216Z,1018.6
2019-03-30T10:29:57.247Z,1018.56
2019-03-30T10:30:57.269Z,1018.51
2019-03-30T10:31:59.855Z,1018.52
2019-03-30T10:32:57.322Z,1018.48
2019-03-30T10:33:57.348Z,1018.46
2019-03-30T10:34:57.378Z,1018.43
2019-03-30T10:35:57.405Z,1018.46
2019-03-30T10:36:57.427Z,1018.38
2019-03-30T10:37:57.457Z,1018.34
2019-03-30T10:38:57.479Z,1018.33
2019-03-30T10:39:57.509Z,1018.3
2019-03-30T10:41:57.556Z,1018.31
2019-03-30T10:42:57.586Z,1018.27
2019-03-30T10:43:57.608Z,1018.22
2019-03-30T10:44:57.637Z,1018.18
2019-03-30T10:45:57.659Z,1018.2
2019-03-30T10:46:57.691Z,1018.17
2019-03-30T10:47:57.715Z,1018.19
2019-03-30T10:48:57.740Z,1018.15
2019-03-30T10:49:57.761Z,1018.18
2019-03-30T10:50:57.788Z,1018.17
2019-03-30T10:51:57.816Z,1018.17
2019-03-30T10:52:57.840Z,1018.16
2019-03-30T10:53:57.868Z,1018.21
2019-03-30T10:54:57.887Z,1018.17
2019-03-30T10:55:57.917Z,1018.17
2019-03-30T10:57:58.705Z,1018.15
2019-03-30T10:58:57.991Z,1018.11
2019-03-30T10:59:58.013Z,1018.1
2019-03-30T11:00:58.042Z,1018.12
2019-03-30T11:01:58.066Z,1018.1
2019-03-30T11:02:58.093Z,1018.04
2019-03-30T11:03:58.112Z,1018.03
2019-03-30T11:04:58.142Z,1017.98
2019-03-30T11:05:58.242Z,1017.98
2019-03-30T11:06:58.191Z,1017.95
2019-03-30T11:07:58.212Z,1017.99
2019-03-30T11:08:58.240Z,1017.93
2019-03-30T11:09:58.261Z,1017.92
2019-03-30T11:10:58.292Z,1017.89
2019-03-30T11:11:58.358Z,1017.98
2019-03-30T11:13:58.365Z,1017.98
2019-03-30T11:14:58.409Z,1017.95
2019-03-30T11:15:58.410Z,1017.93
2019-03-30T11:16:58.432Z,1017.9
2019-03-30T11:17:58.462Z,1017.9
2019-03-30T11:18:58.485Z,1017.92
2019-03-30T11:19:58.510Z,1017.89
2019-03-30T11:20:58.531Z,1017.9
2019-03-30T11:21:58.559Z,1017.88
2019-03-30T11:22:58.580Z,1017.85
2019-03-30T11:23:58.608Z,1017.81
2019-03-30T11:25:07.009Z,1017.82
2019-03-30T11:25:58.653Z,1017.78
2019-03-30T11:26:58.677Z,1017.74
2019-03-30T11:27:58.705Z,1017.68
2019-03-30T11:29:58.750Z,1017.73
2019-03-30T11:30:58.779Z,1017.69
2019-03-30T11:31:58.802Z,1017.71
2019-03-30T11:32:58.824Z,1017.72
2019-03-30T11:33:58.850Z,1017.7
2019-03-30T11:34:58.871Z,1017.65
2019-03-30T11:35:58.895Z,1017.56
2019-03-30T11:36:58.919Z,1017.58
2019-03-30T11:37:58.947Z,1017.54
2019-03-30T11:38:58.971Z,1017.49
2019-03-30T11:39:59.006Z,1017.47
2019-03-30T11:40:59.015Z,1017.48
2019-03-30T11:41:59.040Z,1017.46
2019-03-30T11:42:59.071Z,1017.47
2019-03-30T11:44:59.118Z,1017.4
2019-03-30T11:45:59.140Z,1017.37
2019-03-30T11:46:59.164Z,1017.36
2019-03-30T11:47:59.284Z,1017.33
2019-03-30T11:48:59.209Z,1017.39
2019-03-30T11:49:59.236Z,1017.34
2019-03-30T11:50:59.258Z,1017.36
2019-03-30T11:51:59.285Z,1017.34
2019-03-30T11:52:59.309Z,1017.37
2019-03-30T11:53:59.333Z,1017.34
2019-03-30T11:54:59.352Z,1017.32
2019-03-30T11:55:59.376Z,1017.29
2019-03-30T11:56:59.405Z,1017.25
2019-03-30T11:57:59.428Z,1017.2
2019-03-30T11:58:59.448Z,1017.15
2019-03-30T11:59:59.477Z,1017.16
2019-03-30T12:00:59.495Z,1017.14
2019-03-30T12:01:59.524Z,1017.1
2019-03-30T12:02:59.548Z,1017.13
2019-03-30T12:03:59.571Z,1017.13
2019-03-30T12:04:59.591Z,1017.12
2019-03-30T12:05:59.617Z,1017.12
2019-03-30T12:06:59.644Z,1017.07
2019-03-30T12:07:59.672Z,1017.02
2019-03-30T12:08:59.691Z,1016.96
2019-03-30T12:09:59.712Z,1016.95
2019-03-30T12:10:59.739Z,1016.92
2019-03-30T12:11:59.759Z,1016.93
2019-03-30T12:12:59.783Z,1016.93
2019-03-30T12:13:59.806Z,1016.9
2019-03-30T12:14:59.837Z,1016.92
2019-03-30T12:16:59.878Z,1016.81
2019-03-30T12:17:59.907Z,1016.78
2019-03-30T12:18:59.925Z,1016.81
2019-03-30T12:19:59.955Z,1016.71
2019-03-30T12:20:59.973Z,1016.76
2019-03-30T12:22:00.006Z,1016.71
2019-03-30T12:23:00.025Z,1016.69
2019-03-30T12:24:00.045Z,1016.66
2019-03-30T12:25:00.099Z,1016.63
2019-03-30T12:26:00.096Z,1016.65
2019-03-30T12:27:00.116Z,1016.67
2019-03-30T12:28:00.144Z,1016.64
2019-03-30T12:29:00.164Z,1016.66
2019-03-30T12:30:00.470Z,1016.59
2019-03-30T12:31:00.210Z,1016.57
2019-03-30T12:33:00.263Z,1016.54
2019-03-30T12:34:00.281Z,1016.46
2019-03-30T12:35:00.389Z,1016.5
2019-03-30T12:36:00.330Z,1016.46
2019-03-30T12:37:00.356Z,1016.45
2019-03-30T12:38:00.377Z,1016.35
2019-03-30T12:39:00.406Z,1016.37
2019-03-30T12:40:00.425Z,1016.38
2019-03-30T12:41:00.454Z,1016.4
2019-03-30T12:42:00.473Z,1016.37
2019-03-30T12:43:00.495Z,1016.41
2019-03-30T12:44:00.524Z,1016.38
2019-03-30T12:45:00.547Z,1016.35
2019-03-30T12:46:00.571Z,1016.38
2019-03-30T12:47:00.590Z,1016.37
2019-03-30T12:49:00.641Z,1016.33
2019-03-30T12:50:00.698Z,1016.32